Latest Weather Observations for Urandangi

IDQ60801

Issued at 8:02 pm EST Sunday 24 September 2017 (issued every 30 minutes, with the page automatically refreshed every 10 minutes)

About weather observations | Map of weather stations | Latest weather observations for QLD | Other Formats
Station Details ID: 037058 Name: URANDANGI AERODROME Lat: -21.60 Lon: 138.37 Height: 178.6 m
Data from the previous 72 hours. | See also: Recent months at Urandangi
Date/Time
EST
Temp
°C
App
Temp
°C
Dew
Point
°C
Rel
Hum
%
Delta-T
°C
Wind Press
QNH
hPa
Press
MSL
hPa
Rain since
9am
mm
Dir  Spd
km/h
Gust
km/h
Spd
kts
Gust
kts
24/08:00pm 29.1 26.6 3.9 20 12.9 NW 6 6 3 3 1008.5 1007.8 0.0
24/07:30pm 31.1 29.3 5.5 20 13.6 WNW 4 6 2 3 1008.2 1007.5 0.0
24/07:00pm 33.2 30.9 5.7 18 14.9 WNW 7 9 4 5 1007.9 1007.2 0.0
24/06:30pm 35.4 32.4 5.8 16 16.2 WNW 11 13 6 7 1007.6 1006.9 0.0
24/06:00pm 36.6 32.8 5.8 15 17.0 NW 15 20 8 11 1007.3 1006.6 0.0
24/05:30pm 37.3 32.4 5.3 14 17.5 WNW 20 28 11 15 1007.2 1006.5 0.0
24/05:00pm 37.7 32.9 4.6 13 18.0 NW 19 28 10 15 1007.2 1006.5 0.0
24/04:30pm 38.2 33.8 5.0 13 18.2 NW 17 30 9 16 1007.3 1006.6 0.0
24/04:00pm 37.8 32.6 5.7 14 17.8 WNW 22 35 12 19 1007.3 1006.6 0.0
24/03:30pm 38.3 33.2 6.1 14 17.9 NW 22 37 12 20 1007.6 1006.9 0.0
24/03:00pm 38.5 34.0 6.3 14 18.1 WNW 19 32 10 17 1007.8 1007.1 0.0
24/02:30pm 38.4 33.7 6.2 14 18.0 WNW 20 30 11 16 1008.3 1007.6 0.0
24/02:00pm 37.8 32.5 6.7 15 17.5 NW 24 33 13 18 1008.7 1008.0 0.0
24/01:30pm 37.9 33.0 6.8 15 17.5 NNW 22 35 12 19 1009.2 1008.5 0.0
24/01:00pm 37.5 32.1 6.5 15 17.3 NNW 24 39 13 21 1009.8 1009.1 0.0
24/12:30pm 36.9 32.6 7.8 17 16.5 NNW 20 35 11 19 1010.3 1009.6 0.0
24/12:00pm 36.9 31.1 7.8 17 16.5 NW 28 39 15 21 1010.8 1010.1 0.0
24/11:30am 36.0 30.0 8.7 19 15.7 NW 30 39 16 21 1011.3 1010.6 0.0
24/11:00am 34.6 28.7 9.1 21 14.6 NW 30 39 16 21 1011.8 1011.2 0.0
24/10:30am 33.8 28.9 9.8 23 13.9 NW 26 35 14 19 1012.2 1011.5 0.0
24/10:00am 32.3 27.9 10.4 26 12.7 NNW 24 33 13 18 1012.4 1011.7 0.0
24/09:30am 29.9 26.4 12.3 33 10.4 NNW 22 33 12 18 1012.5 1011.8 0.0
24/09:00am 28.6 24.8 12.5 37 9.5 NNW 24 33 13 18 1012.6 1011.9 0.0
24/08:30am 27.2 24.7 13.5 42 8.2 NNW 19 28 10 15 1012.5 1011.8 0.0
24/08:00am 25.0 23.3 12.6 46 7.2 NNW 13 17 7 9 1012.2 1011.5 0.0
24/07:30am 23.1 21.9 11.5 48 6.6 N 9 13 5 7 1011.9 1011.3 0.0
24/07:00am 22.6 21.0 11.4 49 6.3 NNW 11 13 6 7 1011.6 1010.9 0.0
24/06:30am 22.7 21.1 11.4 49 6.4 N 11 13 6 7 1011.4 1010.7 0.0
24/06:00am 23.1 21.0 11.2 47 6.7 N 13 15 7 8 1011.1 1010.4 0.0
24/05:30am 23.7 21.1 10.7 44 7.3 N 15 20 8 11 1010.8 1010.1 0.0
24/05:00am 24.5 22.3 10.8 42 7.7 N 13 19 7 10 1010.7 1010.0 0.0
24/04:30am 26.1 23.1 10.7 38 8.7 NNW 17 20 9 11 1010.5 1009.8 0.0
24/04:00am 26.5 22.9 10.6 37 9.0 NNW 20 30 11 16 1010.3 1009.6 0.0
24/03:30am 25.4 23.5 10.4 39 8.4 NNW 11 17 6 9 1010.3 1009.6 0.0
24/03:00am 24.1 20.5 5.0 29 9.7 N 13 17 7 9 1010.4 1009.7 0.0
24/02:30am 24.5 20.2 3.2 25 10.5 N 15 19 8 10 1010.6 1009.9 0.0
24/02:00am 25.1 20.1 1.3 21 11.3 N 17 20 9 11 1010.4 1009.7 0.0
24/01:30am 24.8 20.0 0.3 20 11.4 N 15 19 8 10 1010.4 1009.7 0.0
24/01:00am 26.0 21.6 0.6 19 12.0 N 13 15 7 8 1010.4 1009.7 0.0
24/12:30am 27.1 22.8 0.8 18 12.6 N 13 19 7 10 1010.6 1009.9 0.0
24/12:00am 27.0 23.4 0.7 18 12.6 NNW 9 13 5 7 1010.6 1009.9 0.0
 
Date/Time
EST
Temp
°C
App
Temp
°C
Dew
Point
°C
Rel
Hum
%
Delta-T
°C
Wind Press
QNH
hPa
Press
MSL
hPa
Rain since
9am
mm
Dir  Spd
km/h
Gust
km/h
Spd
kts
Gust
kts
23/11:30pm 26.7 22.4 1.2 19 12.3 NNW 13 20 7 11 1010.7 1010.0 0.0
23/11:00pm 27.2 23.8 1.6 19 12.4 NW 9 15 5 8 1010.9 1010.2 0.0
23/10:30pm 27.4 23.5 1.0 18 12.7 N 11 11 6 6 1010.8 1010.1 0.0
23/10:00pm 27.4 23.9 1.0 18 12.7 NNW 9 19 5 10 1011.0 1010.3 0.0
23/09:30pm 27.4 23.5 1.0 18 12.7 N 11 13 6 7 1010.7 1010.0 0.0
23/09:00pm 28.3 24.4 0.9 17 13.3 N 11 13 6 7 1010.4 1009.7 0.0
23/08:30pm 29.3 25.0 0.9 16 13.8 N 13 13 7 7 1010.0 1009.3 0.0
23/08:00pm 29.8 26.2 0.4 15 14.3 N 9 11 5 6 1009.6 1008.9 0.0
23/07:30pm 31.7 28.2 1.0 14 15.2 N 9 9 5 5 1009.3 1008.6 0.0
23/07:00pm 32.9 29.2 -0.2 12 16.2 NNW 9 11 5 6 1009.2 1008.5 0.0
23/06:30pm 35.7 31.5 -0.6 10 18.0 NW 11 17 6 9 1009.0 1008.3 0.0
23/06:00pm 37.2 33.4 -0.9 9 19.0 NW 9 19 5 10 1008.7 1008.0 0.0
23/05:30pm 37.7 33.5 -0.6 9 19.2 NNW 11 20 6 11 1008.6 1007.9 0.0
23/05:00pm 38.2 33.3 -0.2 9 19.5 NW 15 24 8 13 1008.7 1008.0 0.0
23/04:30pm 38.3 34.2 -0.1 9 19.5 N 11 28 6 15 1008.7 1008.0 0.0
23/04:00pm 38.8 33.6 0.3 9 19.7 N 17 26 9 14 1008.9 1008.2 0.0
23/03:30pm 39.3 34.7 -1.0 8 20.3 NW 13 24 7 13 1009.1 1008.4 0.0
23/03:00pm 38.4 33.7 -1.6 8 19.9 WNW 13 32 7 17 1009.4 1008.7 0.0
23/02:30pm 38.7 33.3 -1.4 8 20.0 WNW 17 26 9 14 1009.8 1009.1 0.0
23/02:00pm 38.8 34.0 0.3 9 19.7 NNW 15 44 8 24 1010.2 1009.5 0.0
23/01:30pm 38.8 32.7 0.3 9 19.7 NNW 22 33 12 18 1010.9 1010.2 0.0
23/01:00pm 37.5 31.7 2.1 11 18.5 NW 22 33 12 18 1011.3 1010.6 0.0
23/12:30pm 37.6 31.8 4.5 13 17.9 NNW 24 39 13 21 1011.9 1011.3 0.0
23/12:00pm 37.0 30.8 6.1 15 17.1 NNW 28 39 15 21 1012.4 1011.7 0.0
23/11:30am 36.4 29.9 6.6 16 16.6 NNW 30 43 16 23 1013.1 1012.4 0.0
23/11:00am 35.8 29.2 7.8 18 15.8 NW 32 41 17 22 1013.6 1012.9 0.0
23/10:30am 34.5 29.4 7.5 19 15.1 NW 24 33 13 18 1014.1 1013.4 0.0
23/10:00am 33.2 28.2 6.5 19 14.6 NW 22 35 12 19 1014.4 1013.7 0.0
23/09:30am 31.2 25.9 7.0 22 13.2 NW 24 33 13 18 1014.5 1013.8 0.0
23/09:00am 29.5 24.5 8.0 26 11.8 NW 24 35 13 19 1014.5 1013.8 0.0
23/08:30am 27.5 23.5 8.9 31 10.3 NW 20 28 11 15 1014.3 1013.6 0.0
23/08:00am 25.9 22.6 8.0 32 9.7 NNW 15 24 8 13 1014.0 1013.3 0.0
23/07:30am 23.1 19.4 4.6 30 9.2 NNW 13 15 7 8 1013.6 1012.9 0.0
23/07:00am 21.3 17.5 4.0 32 8.4 N 13 17 7 9 1013.2 1012.5 0.0
23/06:30am 19.1 15.5 0.7 29 8.3 NNW 9 11 5 6 1013.0 1012.3 0.0
23/06:00am 19.5 15.1 0.5 28 8.5 N 13 17 7 9 1012.6 1011.9 0.0
23/05:30am 17.5 13.8 -4.4 22 8.7 WNW 6 7 3 4 1012.4 1011.7 0.0
23/05:00am 19.3 14.8 -3.5 21 9.4 NNW 11 13 6 7 1011.9 1011.3 0.0
23/04:30am 19.7 15.1 -4.5 19 9.8 NNW 11 13 6 7 1011.8 1011.2 0.0
23/04:00am 20.1 16.2 -4.2 19 10.0 NW 7 13 4 7 1011.7 1011.1 0.0
23/03:30am 22.2 17.2 -4.0 17 11.0 NNW 13 17 7 9 1011.7 1011.1 0.0
23/03:00am 23.1 18.0 -4.9 15 11.7 N 13 19 7 10 1011.7 1011.1 0.0
23/02:30am 24.4 19.0 -4.8 14 12.3 N 15 20 8 11 1011.8 1011.2 0.0
23/02:00am 22.3 17.1 -6.5 14 11.5 N 13 15 7 8 1012.1 1011.4 0.0
23/01:30am 24.3 18.8 -5.8 13 12.5 N 15 17 8 9 1012.2 1011.5 0.0
23/01:00am 21.4 16.6 -6.3 15 11.0 NNW 11 13 6 7 1012.1 1011.4 0.0
23/12:30am 21.1 16.9 -7.4 14 11.1 NNW 7 9 4 5 1012.3 1011.6 0.0
23/12:00am 21.9 17.3 -7.7 13 11.5 N 9 11 5 6 1012.4 1011.7 0.0
 
Date/Time
EST
Temp
°C
App
Temp
°C
Dew
Point
°C
Rel
Hum
%
Delta-T
°C
Wind Press
QNH
hPa
Press
MSL
hPa
Rain since
9am
mm
Dir  Spd
km/h
Gust
km/h
Spd
kts
Gust
kts
22/11:30pm 23.7 18.9 -6.3 13 12.2 N 11 13 6 7 1012.5 1011.8 0.0
22/11:00pm 24.1 19.6 -7.0 12 12.6 N 9 9 5 5 1012.6 1011.9 0.0
22/10:30pm 24.6 20.1 -6.7 12 12.8 N 9 11 5 6 1012.6 1011.9 0.0
22/10:00pm 25.1 20.3 -6.3 12 13.0 N 11 13 6 7 1012.4 1011.7 0.0
22/09:30pm 25.4 21.2 -7.2 11 13.3 N 7 11 4 6 1012.5 1011.8 0.0
22/09:00pm 25.7 20.8 -6.9 11 13.4 N 11 13 6 7 1012.3 1011.6 0.0
22/08:30pm 27.3 22.1 -5.7 11 14.1 N 13 15 7 8 1011.8 1011.2 0.0
22/08:00pm 26.1 22.0 -9.2 9 14.0 N 6 7 3 4 1011.4 1010.7 0.0
22/07:30pm 30.1 26.2 -6.2 9 15.7 NW 6 7 3 4 1011.2 1010.5 0.0
22/07:00pm 32.4 28.4 -6.0 8 17.0 NNW 7 9 4 5 1010.9 1010.2 0.0
22/06:30pm 35.1 31.1 -5.8 7 18.5 WNW 7 11 4 6 1010.6 1009.9 0.0
22/06:00pm 36.6 32.1 -6.8 6 19.6 N 9 13 5 7 1010.4 1009.7 0.0
22/05:30pm 37.1 33.6 -6.4 6 19.8 NNE 4 9 2 5 1010.2 1009.5 0.0
22/05:00pm 37.9 32.9 -8.2 5 20.6 NNE 11 22 6 12 1010.2 1009.5 0.0
22/04:30pm 38.3 33.7 -7.9 5 20.8 NNE 9 17 5 9 1010.2 1009.5 0.0
22/04:00pm 38.5 32.1 -5.4 6 20.6 NW 20 28 11 15 1010.3 1009.6 0.0
22/03:30pm 38.1 33.9 -8.1 5 20.7 WNW 7 17 4 9 1010.5 1009.8 0.0
22/03:00pm 38.1 32.7 -8.1 5 20.7 N 13 30 7 16 1010.8 1010.1 0.0
22/02:30pm 39.0 34.4 -7.4 5 21.1 WSW 9 19 5 10 1011.0 1010.3 0.0
22/02:00pm 37.8 33.2 -8.3 5 20.5 N 9 22 5 12 1011.6 1010.9 0.0
22/01:30pm 38.3 32.4 -5.5 6 20.4 NNW 17 28 9 15 1012.2 1011.5 0.0
22/01:00pm 37.4 31.8 -6.2 6 20.0 NW 15 24 8 13 1012.8 1012.1 0.0
22/12:30pm 37.2 31.4 -4.3 7 19.6 NW 17 32 9 17 1013.4 1012.7 0.0
22/12:00pm 37.3 30.8 -2.4 8 19.3 NNW 22 35 12 19 1013.9 1013.2 0.0
22/11:30am 36.2 29.4 -1.7 9 18.5 NNW 24 32 13 17 1014.3 1013.6 0.0
22/11:00am 35.3 29.2 0.4 11 17.5 NNW 22 32 12 17 1014.7 1014.0 0.0
22/10:30am 34.5 28.1 1.0 12 16.9 NW 24 33 13 18 1015.1 1014.4 0.0
22/10:00am 32.6 26.1 2.6 15 15.3 NW 26 33 14 18 1015.3 1014.6 0.0
22/09:30am 30.7 25.0 2.9 17 14.1 NW 22 30 12 16 1015.4 1014.7 0.0
22/09:00am 29.3 22.8 2.5 18 13.4 NW 26 37 14 20 1015.2 1014.5 0.0
22/08:30am 27.0 20.9 0.7 18 12.5 NNW 22 30 12 16 1015.1 1014.4 0.0
22/08:00am 25.2 19.4 -5.1 13 12.8 NNW 17 20 9 11 1014.8 1014.1 0.0
22/07:30am 21.8 15.8 -6.8 14 11.3 N 17 20 9 11 1014.4 1013.7 0.0
22/07:00am 18.6 13.6 -7.7 16 9.9 N 11 15 6 8 1014.0 1013.3 0.0
22/06:30am 18.2 12.8 -8.0 16 9.7 NNW 13 15 7 8 1013.6 1012.9 0.0
22/06:00am 19.6 13.9 -7.7 15 10.4 N 15 19 8 10 1013.2 1012.5 0.0
22/05:30am 19.4 13.3 -7.9 15 10.3 N 17 19 9 10 1012.7 1012.0 0.0
22/05:00am 18.5 14.3 -7.8 16 9.9 N 7 11 4 6 1012.3 1011.6 0.0
22/04:30am 18.2 14.5 -8.8 15 9.9 N 4 7 2 4 1011.8 1011.2 0.0
22/04:00am 19.1 14.1 -8.1 15 10.2 N 11 15 6 8 1011.7 1011.1 0.0
22/03:30am 19.3 13.9 -7.9 15 10.3 N 13 13 7 7 1011.6 1010.9 0.0
22/03:00am 19.7 14.7 -8.5 14 10.6 N 11 13 6 7 1011.7 1011.1 0.0
22/02:30am 21.0 15.6 -8.4 13 11.2 NNE 13 15 7 8 1011.8 1011.2 0.0
22/02:00am 20.8 15.5 -7.6 14 11.0 NNE 13 19 7 10 1012.1 1011.4 0.0
22/01:30am 20.5 15.5 -7.9 14 10.9 NE 11 13 6 7 1012.1 1011.4 0.0
22/01:00am 20.4 15.8 -8.0 14 10.8 NNE 9 11 5 6 1012.4 1011.7 0.0
22/12:30am 19.5 15.1 -10.6 12 10.8 NE 7 9 4 5 1012.4 1011.7 0.0
22/12:00am 22.3 17.3 -8.4 12 11.9 NE 11 13 6 7 1012.6 1011.9 0.0
 
Date/Time
EST
Temp
°C
App
Temp
°C
Dew
Point
°C
Rel
Hum
%
Delta-T
°C
Wind Press
QNH
hPa
Press
MSL
hPa
Rain since
9am
mm
Dir  Spd
km/h
Gust
km/h
Spd
kts
Gust
kts
21/11:30pm 22.6 16.8 -8.2 12 12.0 NE 15 15 8 8 1012.7 1012.0 0.0
21/11:00pm 21.2 15.7 -9.3 12 11.4 NE 13 13 7 7 1012.7 1012.0 0.0
21/10:30pm 22.0 17.9 -8.7 12 11.7 ENE 6 7 3 4 1012.7 1012.0 0.0
21/10:00pm 22.1 18.3 -9.7 11 11.9 WSW 4 4 2 2 1012.7 1012.0 0.0
21/09:30pm 22.8 18.6 -10.4 10 12.4 WSW 6 9 3 5 1012.6 1011.9 0.0
21/09:00pm 24.0 21.0 -9.5 10 12.9 CALM 0 0 0 0 1012.4 1011.7 0.0
21/08:30pm 24.2 20.7 -10.6 9 13.1 SE 2 6 1 3 1011.9 1011.3 0.0

Other Formats:

Comma delimited format used in spreadsheet applications
http://www.bom.gov.au/fwo/IDQ60801/IDQ60801.94344.axf

JavaScript Object Notation format (JSON) in row-major order
http://www.bom.gov.au/fwo/IDQ60801/IDQ60801.94344.json